Time;durP1;ratioP1;P1;durP2;ratioP2;P2;SDS_P1;SDS_P2;PMS_P1;PMS_P2;Temp;Humidity;BMP_temperature;BMP_pressure;BME280_temperature;BME280_humidity;BME280_pressure;Samples;Min_cycle;Max_cycle;Signal;HPM_P1;HPM_P2
2022/10/03 00:01:35;;;;;;;0.37;0.37;;;;;;;7.90;100.00;98702.82;1748985;80;21017;-76
2022/10/03 00:04:29;;;;;;;0.87;0.63;;;;;;;7.91;100.00;98700.48;1758860;80;21049;-79
2022/10/03 00:07:04;;;;;;;1.40;0.30;;;;;;;7.91;100.00;98693.02;1755517;80;21064;-77
2022/10/03 00:09:51;;;;;;;1.73;0.43;;;;;;;7.90;100.00;98698.04;1754352;80;21462;-79
2022/10/03 00:12:47;;;;;;;1.92;0.80;;;;;;;7.90;100.00;98698.04;1757338;80;21000;-77
2022/10/03 00:15:31;;;;;;;1.27;0.63;;;;;;;7.90;100.00;98698.84;1761795;80;20993;-77
2022/10/03 00:18:20;;;;;;;1.10;1.10;;;;;;;7.88;100.00;98692.94;1730052;82;21442;-78
2022/10/03 00:21:04;;;;;;;0.73;0.57;;;;;;;7.88;100.00;98688.95;1709821;80;20992;-78
2022/10/03 00:23:46;;;;;;;1.37;0.97;;;;;;;7.89;100.00;98693.25;1713456;82;21029;-78
2022/10/03 00:26:42;;;;;;;0.70;0.70;;;;;;;7.90;100.00;98678.95;1723030;82;21066;-79
2022/10/03 00:29:46;;;;;;;1.13;1.00;;;;;;;7.92;100.00;98684.85;1712294;81;20977;-80
2022/10/03 00:32:18;;;;;;;1.00;1.00;;;;;;;7.94;100.00;98680.14;1728235;80;21048;-78
2022/10/03 00:34:54;;;;;;;1.23;0.90;;;;;;;7.98;100.00;98678.69;1754738;81;20993;-78
2022/10/03 00:37:28;;;;;;;2.03;1.00;;;;;;;8.01;100.00;98672.16;1758109;79;21020;-79
2022/10/03 00:40:12;;;;;;;1.17;1.07;;;;;;;8.03;100.00;98677.27;1748189;80;21044;-78
2022/10/03 00:43:14;;;;;;;2.23;1.20;;;;;;;8.02;100.00;98667.66;1751547;81;21025;-79
2022/10/03 00:46:36;;;;;;;1.73;1.07;;;;;;;8.04;100.00;98657.65;1758398;81;21446;-80
2022/10/03 00:49:17;;;;;;;1.17;1.17;;;;;;;8.05;100.00;98661.95;1757922;79;20973;-79
2022/10/03 00:52:25;;;;;;;1.93;1.83;;;;;;;8.08;100.00;98664.16;1759186;80;21493;-78
2022/10/03 00:54:57;;;;;;;1.60;0.93;;;;;;;8.08;100.00;98657.52;1750416;80;21675;-78
2022/10/03 00:57:57;;;;;;;1.53;1.43;;;;;;;8.05;100.00;98654.79;1758366;80;21053;-77
2022/10/03 01:00:32;;;;;;;3.80;1.50;;;;;;;8.07;100.00;98662.54;1756539;80;21070;-78
2022/10/03 01:03:30;;;;;;;1.23;0.93;;;;;;;8.09;100.00;98656.50;1720175;82;21046;-79
2022/10/03 01:06:13;;;;;;;;;;;;;;;8.09;100.00;98665.27;1736555;82;20993;-79
2022/10/03 01:09:05;;;;;;;1.13;1.13;;;;;;;8.12;100.00;98659.55;1721305;82;20156;-78
2022/10/03 01:11:59;;;;;;;2.20;1.67;;;;;;;8.14;100.00;98651.37;1716780;82;21020;-77
2022/10/03 01:14:53;;;;;;;0.83;0.83;;;;;;;8.17;100.00;98645.63;1720582;82;21556;-76
2022/10/03 01:17:46;;;;;;;1.10;1.00;;;;;;;8.10;100.00;98655.46;1754261;80;21147;-78
2022/10/03 01:20:28;;;;;;;1.50;1.40;;;;;;;8.16;100.00;98656.77;1754783;81;21127;-76
2022/10/03 01:23:09;;;;;;;1.00;0.90;;;;;;;8.20;100.00;98655.83;1709098;81;21041;-79
2022/10/03 01:25:59;;;;;;;1.53;0.87;;;;;;;8.22;100.00;98647.13;1683535;83;20994;-79
2022/10/03 01:31:47;;;;;;;1.23;1.13;;;;;;;8.24;100.00;98652.23;1735375;81;21080;-79
2022/10/03 01:34:31;;;;;;;2.87;1.42;;;;;;;8.21;100.00;98654.78;1731629;79;21013;-79
2022/10/03 01:37:15;;;;;;;1.17;1.07;;;;;;;8.21;100.00;98669.90;1719499;82;21070;-78
2022/10/03 01:40:08;;;;;;;0.97;0.97;;;;;;;8.16;100.00;98659.94;1722856;83;20994;-78
2022/10/03 01:43:01;;;;;;;1.47;1.47;;;;;;;8.12;100.00;98665.38;1695445;80;20993;-78
2022/10/03 01:46:07;;;;;;;1.40;1.13;;;;;;;8.08;100.00;98663.66;1751136;80;21453;-78
2022/10/03 01:49:06;;;;;;;1.10;1.00;;;;;;;8.06;100.00;98662.23;1758821;80;20996;-77
2022/10/03 01:51:49;;;;;;;0.93;0.80;;;;;;;8.06;100.00;98668.86;1758324;80;21059;-79
2022/10/03 01:54:41;;;;;;;0.80;0.80;;;;;;;8.04;100.00;98670.39;1753750;80;20973;-78
2022/10/03 01:57:13;;;;;;;1.60;1.50;;;;;;;8.04;100.00;98670.39;1749699;80;20981;-77
2022/10/03 01:59:48;;;;;;;1.43;0.90;;;;;;;8.05;100.00;98664.59;1752234;80;20985;-78
2022/10/03 02:02:37;;;;;;;2.13;2.03;;;;;;;8.07;100.00;98672.64;1758476;80;20957;-81
2022/10/03 02:05:25;;;;;;;1.23;1.13;;;;;;;7.78;100.00;98622.30;1758784;80;20953;-79
2022/10/03 02:08:17;;;;;;;1.40;1.30;;;;;;;8.13;100.00;98663.01;1755312;81;20994;-79
2022/10/03 02:11:09;;;;;;;1.50;1.50;;;;;;;8.15;100.00;98665.73;1736826;80;21483;-78
2022/10/03 02:13:59;;;;;;;0.90;0.90;;;;;;;8.16;100.00;98666.57;1749803;80;21489;-79
2022/10/03 02:16:46;;;;;;;1.00;1.00;;;;;;;8.11;100.00;98653.92;1731564;81;20997;-78
2022/10/03 02:19:20;;;;;;;1.63;1.20;;;;;;;8.11;100.00;98658.43;1691331;83;21137;-79
2022/10/03 02:21:53;;;;;;;0.93;0.93;;;;;;;8.11;100.00;98653.13;1722807;82;21131;-85
2022/10/03 02:24:25;;;;;;;1.97;1.47;;;;;;;8.13;100.00;98657.70;1695495;83;21097;-79
2022/10/03 02:27:43;;;;;;;0.63;0.63;;;;;;;8.17;100.00;98654.42;1719472;83;21460;-78
2022/10/03 02:30:19;;;;;;;0.98;0.53;;;;;;;8.22;100.00;98658.27;1714208;82;21022;-85
2022/10/03 02:33:22;;;;;;;1.07;1.07;;;;;;;7.84;100.00;98601.55;1718536;83;21096;-79
2022/10/03 02:36:27;;;;;;;0.80;0.80;;;;;;;8.16;100.00;98646.67;1703457;83;21492;-78
2022/10/03 02:39:37;;;;;;;1.40;1.30;;;;;;;8.13;100.00;98653.20;1719465;83;21006;-78
2022/10/03 02:42:39;;;;;;;1.57;1.30;;;;;;;8.12;100.00;98656.09;1723466;82;21114;-80
2022/10/03 02:45:16;;;;;;;1.50;1.40;;;;;;;8.11;100.00;98663.22;1707648;82;21021;-78
2022/10/03 02:48:20;;;;;;;3.70;1.53;;;;;;;8.10;100.00;98654.13;1713633;80;21163;-78
2022/10/03 02:50:57;;;;;;;1.50;1.40;;;;;;;8.12;100.00;98648.12;1699855;83;21448;-76
2022/10/03 02:54:02;;;;;;;3.80;1.17;;;;;;;8.12;100.00;98648.94;1709992;82;21082;-78
2022/10/03 02:57:09;;;;;;;2.10;1.10;;;;;;;8.11;100.00;98653.13;1648353;85;21114;-78
2022/10/03 03:00:20;;;;;;;0.93;0.87;;;;;;;8.10;100.00;98648.83;1668765;85;21046;-77
2022/10/03 03:03:13;;;;;;;1.50;0.87;;;;;;;8.10;100.00;98644.36;1656141;85;21023;-78
2022/10/03 03:06:17;;;;;;;0.60;0.60;;;;;;;8.13;100.00;98652.39;1664509;85;21109;-77
2022/10/03 03:09:22;;;;;;;2.27;0.80;;;;;;;8.18;100.00;98644.61;1657415;84;21080;-78
2022/10/03 03:12:16;;;;;;;0.60;0.60;;;;;;;8.19;100.00;98644.41;1645144;85;21030;-81
2022/10/03 03:15:12;;;;;;;0.83;0.83;;;;;;;8.19;100.00;98635.61;1653875;85;20977;-78
2022/10/03 03:18:14;;;;;;;0.97;0.97;;;;;;;8.18;100.00;98634.80;1663700;84;21005;-79
2022/10/03 03:21:30;;;;;;;1.00;0.80;;;;;;;8.17;100.00;98642.97;1699658;83;21114;-77
2022/10/03 03:24:17;;;;;;;1.13;0.87;;;;;;;8.16;100.00;98656.77;1690088;83;20980;-79
2022/10/03 03:27:25;;;;;;;2.77;0.67;;;;;;;8.14;100.00;98650.86;1684495;83;21074;-78
2022/10/03 03:30:24;;;;;;;2.12;0.80;;;;;;;8.14;100.00;98651.37;1705190;83;21007;-77
2022/10/03 03:33:14;;;;;;;1.93;1.03;;;;;;;8.12;100.00;98642.82;1655668;86;21627;-79
2022/10/03 03:36:04;;;;;;;1.57;1.47;;;;;;;8.12;100.00;98637.52;1690628;83;21518;-78
2022/10/03 03:38:55;;;;;;;1.00;1.00;;;;;;;8.16;100.00;98644.02;1709337;83;21030;-77
2022/10/03 03:42:49;;;;;;;1.03;0.97;;;;;;;8.27;100.00;98629.22;1743863;79;22655;-79
2022/10/03 03:45:39;;;;;;;1.13;1.10;;;;;;;8.24;100.00;98631.00;1772566;78;21101;-78
2022/10/03 03:48:29;;;;;;;1.37;1.27;;;;;;;8.25;100.00;98633.44;1789106;78;21059;-79
2022/10/03 03:51:10;;;;;;;3.03;0.90;;;;;;;8.26;100.00;98636.90;1763960;80;21488;-79
2022/10/03 03:54:25;;;;;;;1.23;1.07;;;;;;;8.24;100.00;98638.44;1725537;81;20977;-78
2022/10/03 03:57:10;;;;;;;2.07;1.00;;;;;;;8.22;100.00;98643.15;1661513;79;21032;-80
2022/10/03 04:00:02;;;;;;;2.87;1.27;;;;;;;8.15;100.00;98647.68;1703930;83;21581;-78
2022/10/03 04:02:49;;;;;;;1.40;1.30;;;;;;;8.09;100.00;98643.23;1691579;83;21529;-80
2022/10/03 04:05:39;;;;;;;1.50;1.40;;;;;;;8.10;100.00;98643.52;1707556;83;21029;-82
2022/10/03 04:08:37;;;;;;;1.60;1.50;;;;;;;8.10;100.00;98634.23;1722495;81;21642;-78
2022/10/03 04:11:30;;;;;;;1.07;0.97;;;;;;;8.06;100.00;98639.18;1665631;84;21082;-84
2022/10/03 04:14:26;;;;;;;2.70;1.27;;;;;;;8.03;100.00;98635.62;1664296;84;21005;-79
2022/10/03 04:20:35;;;;;;;1.90;1.80;;;;;;;7.98;100.00;98642.88;1590314;84;21056;-81
2022/10/03 04:23:46;;;;;;;2.87;0.90;;;;;;;7.92;100.00;98641.08;1689679;84;21012;-80
2022/10/03 04:26:50;;;;;;;1.50;1.40;;;;;;;7.90;100.00;98643.66;1711700;82;21625;-79
2022/10/03 04:29:34;;;;;;;1.60;1.50;;;;;;;7.89;100.00;98639.36;1717985;81;21560;-84
2022/10/03 04:32:33;;;;;;;1.63;1.53;;;;;;;7.86;100.00;98637.95;1700099;83;20966;-79
2022/10/03 04:35:37;;;;;;;3.23;1.50;;;;;;;7.87;100.00;98644.87;1695017;83;21049;-77
2022/10/03 04:38:24;;;;;;;1.40;1.30;;;;;;;7.86;100.00;98644.59;1755008;80;20978;-78
2022/10/03 04:41:28;;;;;;;1.40;1.30;;;;;;;7.86;100.00;98643.27;1767210;79;21077;-79
2022/10/03 04:44:07;;;;;;;1.37;1.27;;;;;;;7.88;100.00;98643.86;1762681;80;21462;-77
2022/10/03 04:46:45;;;;;;;1.37;1.27;;;;;;;7.90;100.00;98639.16;1779036;79;21119;-77
2022/10/03 04:49:29;;;;;;;1.07;0.90;;;;;;;7.93;100.00;98644.05;1780293;79;21515;-76
2022/10/03 04:52:16;;;;;;;1.70;1.60;;;;;;;7.95;100.00;98646.49;1775138;79;21010;-75
2022/10/03 04:55:05;;;;;;;1.40;1.40;;;;;;;7.95;100.00;98641.99;1780686;79;21071;-78
2022/10/03 04:57:53;;;;;;;;;;;;;;;7.96;100.00;98648.91;1753792;79;21017;-78
2022/10/03 05:00:40;;;;;;;2.00;1.40;;;;;;;7.96;100.00;98640.95;1733252;81;20136;-80
2022/10/03 05:03:53;;;;;;;2.13;1.83;;;;;;;7.90;100.00;98643.66;1691692;81;21020;-74
2022/10/03 05:06:51;;;;;;;1.50;1.40;;;;;;;7.90;100.00;98647.11;1761339;80;21054;-73
2022/10/03 05:09:46;;;;;;;0.80;0.80;;;;;;;7.90;100.00;98643.66;1739603;81;21442;-74
2022/10/03 05:13:03;;;;;;;0.83;0.83;;;;;;;7.90;100.00;98642.33;1726179;82;21076;-74
2022/10/03 05:15:35;;;;;;;0.77;0.73;;;;;;;7.93;100.00;98639.23;1715864;82;21005;-75
2022/10/03 05:18:34;;;;;;;1.40;1.23;;;;;;;7.91;100.00;98643.45;1745755;80;21009;-72
2022/10/03 05:21:15;;;;;;;;;;;;;;;7.94;100.00;98642.20;1761618;79;21056;-73
2022/10/03 05:24:02;;;;;;;1.37;1.27;;;;;;;7.96;100.00;98646.77;1713324;82;20188;-72
2022/10/03 05:26:49;;;;;;;0.60;0.60;;;;;;;7.91;100.00;98649.24;1695094;83;21069;-71
2022/10/03 05:29:36;;;;;;;1.05;1.05;;;;;;;7.91;100.00;98653.22;1715204;82;21306;-72
2022/10/03 05:32:31;;;;;;;1.73;1.63;;;;;;;7.89;100.00;98650.80;1701862;83;21020;-75
2022/10/03 05:35:35;;;;;;;0.57;0.57;;;;;;;7.91;100.00;98656.71;1676068;83;21206;-70
2022/10/03 05:38:13;;;;;;;2.10;1.90;;;;;;;7.96;100.00;98653.41;1715632;82;20957;-71
2022/10/03 05:41:02;;;;;;;1.43;1.33;;;;;;;7.97;100.00;98659.84;1735585;80;21014;-71
2022/10/03 05:43:43;;;;;;;4.33;3.07;;;;;;;7.99;100.00;98668.91;1739606;81;20989;-70
2022/10/03 05:46:41;;;;;;;2.67;2.43;;;;;;;8.02;100.00;98663.16;1747652;80;21038;-70
2022/10/03 05:49:39;;;;;;;2.50;1.87;;;;;;;8.05;100.00;98653.46;1704371;82;21054;-68
2022/10/03 05:52:21;;;;;;;;;;;;;;;8.06;100.00;98649.80;1756557;81;21056;-70
2022/10/03 05:55:14;;;;;;;7.13;6.40;;;;;;;8.05;100.00;98644.70;1765617;79;20127;-70
2022/10/03 05:57:46;;;;;;;0.80;0.80;;;;;;;8.02;100.00;98671.12;1696174;79;21540;-70
2022/10/03 06:00:50;;;;;;;0.73;0.73;;;;;;;8.04;100.00;98647.03;1684853;83;21164;-70
2022/10/03 06:03:52;;;;;;;1.47;0.77;;;;;;;8.05;100.00;98657.44;1684972;83;21279;-70
2022/10/03 06:06:35;;;;;;;0.93;0.93;;;;;;;8.05;100.00;98648.16;1752797;80;21002;-70
2022/10/03 06:09:26;;;;;;;1.40;1.30;;;;;;;8.10;100.00;98655.46;1739139;81;21002;-70
2022/10/03 06:12:16;;;;;;;1.80;1.20;;;;;;;8.16;100.00;98658.09;1718657;81;21029;-71
2022/10/03 06:15:11;;;;;;;3.57;2.20;;;;;;;8.21;100.00;98661.41;1730974;81;21072;-69
2022/10/03 06:17:52;;;;;;;3.10;2.40;;;;;;;8.25;100.00;98657.83;1748277;79;21083;-69
2022/10/03 06:20:46;;;;;;;2.27;1.30;;;;;;;8.27;100.00;98658.42;1783207;78;21058;-70
2022/10/03 06:23:27;;;;;;;1.97;1.77;;;;;;;8.31;100.00;98663.62;1756440;79;21049;-70
2022/10/03 06:26:37;;;;;;;2.13;1.23;;;;;;;8.33;100.00;98655.73;1761833;80;20993;-71
2022/10/03 06:29:34;;;;;;;2.87;1.30;;;;;;;8.37;100.00;98655.59;1767650;79;21552;-69
2022/10/03 06:32:15;;;;;;;1.37;0.82;;;;;;;8.39;100.00;98657.52;1735617;81;21051;-70
2022/10/03 06:35:14;;;;;;;1.23;0.80;;;;;;;8.34;100.00;98671.97;1749469;80;21008;-72
2022/10/03 06:38:30;;;;;;;0.90;0.73;;;;;;;8.32;100.00;98674.00;1726483;80;21058;-70
2022/10/03 06:41:27;;;;;;;0.93;0.83;;;;;;;8.30;100.00;98673.41;1752216;79;21000;-70
2022/10/03 06:44:23;;;;;;;2.53;1.03;;;;;;;8.32;100.00;98685.14;1756055;79;21460;-69
2022/10/03 06:47:15;;;;;;;1.27;0.70;;;;;;;8.35;100.00;98685.53;1736868;79;21037;-71
2022/10/03 06:50:18;;;;;;;0.80;0.40;;;;;;;8.43;100.00;98682.36;1767345;79;21012;-71
2022/10/03 06:53:06;;;;;;;0.87;0.30;;;;;;;8.41;100.00;98685.71;1767597;79;20961;-70
2022/10/03 06:56:07;;;;;;;0.70;0.20;;;;;;;8.38;100.00;98685.11;1754121;80;21017;-72
2022/10/03 06:59:04;;;;;;;0.37;0.30;;;;;;;8.38;100.00;98681.13;1756336;80;21012;-70
2022/10/03 07:01:49;;;;;;;1.30;0.20;;;;;;;8.41;100.00;98693.67;1739254;80;21012;-71
2022/10/03 07:04:54;;;;;;;0.60;0.43;;;;;;;8.44;100.00;98686.62;1729031;80;22290;-71
2022/10/03 07:08:01;;;;;;;0.60;0.40;;;;;;;8.48;100.00;98699.27;1736582;81;21013;-70
2022/10/03 07:10:55;;;;;;;1.43;0.70;;;;;;;8.52;100.00;98704.45;1736035;81;20994;-72
2022/10/03 07:13:44;;;;;;;0.73;0.60;;;;;;;8.23;100.00;98648.77;1721145;81;21160;-70
2022/10/03 07:16:35;;;;;;;0.43;0.40;;;;;;;8.58;100.00;98708.09;1765080;80;21509;-70
2022/10/03 07:19:16;;;;;;;1.13;0.67;;;;;;;8.64;100.00;98710.39;1770143;80;21022;-72
2022/10/03 07:22:28;;;;;;;0.97;0.30;;;;;;;8.68;100.00;98703.13;1731077;81;21004;-71
2022/10/03 07:25:32;;;;;;;0.77;0.60;;;;;;;8.71;100.00;98695.23;1749239;79;21047;-73
2022/10/03 07:28:13;;;;;;;2.67;0.67;;;;;;;8.71;100.00;98698.69;1780568;79;21155;-70
2022/10/03 07:31:28;;;;;;;0.80;0.67;;;;;;;8.76;100.00;98695.40;1761058;79;21039;-70
2022/10/03 07:34:50;;;;;;;0.80;0.40;;;;;;;8.83;100.00;98700.64;1731805;81;20972;-71
2022/10/03 07:41:02;;;;;;;1.80;1.47;;;;;;;8.99;100.00;98693.46;1742521;80;21226;-70
2022/10/03 07:44:06;;;;;;;3.03;1.53;;;;;;;9.04;100.00;98692.30;1741946;81;21154;-70
2022/10/03 07:46:41;;;;;;;1.53;0.77;;;;;;;9.12;100.00;98693.86;1748214;80;21156;-71
2022/10/03 07:49:41;;;;;;;1.87;1.13;;;;;;;9.24;100.00;98689.43;1770219;79;21031;-71
2022/10/03 07:52:36;;;;;;;2.43;1.13;;;;;;;9.40;100.00;98687.22;1737287;81;21074;-70
2022/10/03 07:55:26;;;;;;;1.83;0.83;;;;;;;9.64;100.00;98681.02;1741689;80;21532;-73
2022/10/03 07:58:33;;;;;;;2.43;0.90;;;;;;;9.86;100.00;98680.56;1727519;80;21020;-71
2022/10/03 08:01:36;;;;;;;1.07;1.00;;;;;;;10.03;100.00;98678.90;1721759;81;21021;-69
2022/10/03 08:04:43;;;;;;;1.13;0.90;;;;;;;10.18;100.00;98671.03;1722464;80;21065;-72
2022/10/03 08:07:34;;;;;;;3.07;0.60;;;;;;;10.30;100.00;98670.07;1692477;83;21029;-71
2022/10/03 08:10:36;;;;;;;1.73;0.77;;;;;;;10.41;100.00;98658.33;1691019;83;20997;-71
2022/10/03 08:13:30;;;;;;;1.80;0.83;;;;;;;10.54;100.00;98660.78;1744706;79;21065;-73
2022/10/03 08:16:05;;;;;;;2.77;1.23;;;;;;;10.68;100.00;98661.38;1762528;79;21020;-71
2022/10/03 08:19:01;;;;;;;3.02;1.02;;;;;;;10.83;100.00;98664.92;1760037;79;21031;-71
2022/10/03 08:21:52;;;;;;;4.45;2.80;;;;;;;10.94;100.00;98656.12;1759304;79;21591;-73
2022/10/03 08:24:47;;;;;;;2.40;0.70;;;;;;;11.06;100.00;98661.48;1710835;81;21015;-72
2022/10/03 08:27:45;;;;;;;2.90;0.88;;;;;;;11.15;100.00;98657.92;1755530;79;21047;-73
2022/10/03 08:30:29;;;;;;;4.05;1.05;;;;;;;11.24;100.00;98663.19;1766385;79;21007;-72
2022/10/03 08:33:24;;;;;;;2.98;0.95;;;;;;;11.37;100.00;98667.47;1720098;80;21048;-71
2022/10/03 08:36:08;;;;;;;1.20;1.10;;;;;;;11.46;100.00;98663.40;1730269;81;21493;-71
2022/10/03 08:38:59;;;;;;;3.72;1.42;;;;;;;11.55;100.00;98667.86;1743287;80;21636;-70
2022/10/03 08:41:57;;;;;;;4.65;1.25;;;;;;;11.64;100.00;98676.59;1738581;79;20982;-72
2022/10/03 08:44:52;;;;;;;2.62;0.72;;;;;;;11.74;100.00;98674.65;1783951;78;21050;-73
2022/10/03 08:48:03;;;;;;;2.83;1.57;;;;;;;11.78;100.00;98674.45;1780819;79;20985;-71
2022/10/03 08:50:57;;;;;;;6.75;1.00;;;;;;;11.80;99.41;98685.70;1723674;81;21032;-71
2022/10/03 08:54:01;;;;;;;4.65;0.72;;;;;;;11.77;98.37;98680.86;1729987;81;21212;-72
2022/10/03 08:57:11;;;;;;;4.10;0.98;;;;;;;11.77;98.25;98682.20;1756744;79;21514;-72
2022/10/03 09:00:05;;;;;;;2.60;0.45;;;;;;;11.78;97.93;98678.99;1749072;80;21111;-72
2022/10/03 09:02:52;;;;;;;3.17;0.85;;;;;;;11.82;96.44;98685.48;1744287;80;21001;-72
2022/10/03 09:05:33;;;;;;;1.95;0.95;;;;;;;11.88;95.83;98684.02;1734844;81;21072;-72
2022/10/03 09:08:46;;;;;;;3.47;1.50;;;;;;;11.97;96.25;98687.66;1743260;80;21061;-71
2022/10/03 09:11:43;;;;;;;4.28;1.47;;;;;;;12.07;95.39;98686.52;1747692;80;20997;-71
2022/10/03 09:14:38;;;;;;;2.55;0.88;;;;;;;12.18;94.57;98689.66;1746041;80;21719;-74
2022/10/03 09:17:12;;;;;;;2.22;0.78;;;;;;;12.30;92.34;98687.46;1725196;79;21017;-72
2022/10/03 09:20:01;;;;;;;3.22;0.72;;;;;;;12.33;92.85;98688.33;1765705;79;20996;-71
2022/10/03 09:22:55;;;;;;;2.33;1.15;;;;;;;12.32;93.96;98689.36;1761997;79;21498;-72
2022/10/03 09:25:44;;;;;;;4.72;1.90;;;;;;;12.27;94.39;98683.42;1762110;79;20986;-71
2022/10/03 09:28:51;;;;;;;1.70;0.72;;;;;;;12.26;94.70;98690.63;1731230;81;21525;-73
2022/10/03 09:31:40;;;;;;;2.42;0.70;;;;;;;12.33;95.23;98685.66;1758932;80;21012;-70
2022/10/03 09:34:48;;;;;;;6.55;0.50;;;;;;;12.43;95.31;98690.66;1758197;79;20934;-72
2022/10/03 09:37:37;;;;;;;2.67;0.72;;;;;;;12.53;94.05;98687.34;1765119;79;21061;-70
2022/10/03 09:40:44;;;;;;;2.22;2.02;;;;;;;12.70;92.48;98694.58;1694238;83;21015;-75
2022/10/03 09:43:27;;;;;;;4.33;1.30;;;;;;;12.79;87.61;98695.27;1762991;79;21041;-74
2022/10/03 09:46:14;;;;;;;1.55;0.57;;;;;;;12.84;89.10;98688.64;1769328;79;21030;-73
2022/10/03 09:49:22;;;;;;;1.60;0.53;;;;;;;12.94;88.42;98690.69;1765607;79;21009;-72
2022/10/03 09:52:27;;;;;;;5.50;1.60;;;;;;;13.05;86.23;98695.14;1764348;79;21034;-72
2022/10/03 09:55:38;;;;;;;2.22;0.50;;;;;;;13.18;84.41;98697.98;1761283;79;21034;-70
2022/10/03 09:58:14;;;;;;;2.30;0.98;;;;;;;13.27;84.03;98685.00;1766692;79;21445;-72
2022/10/03 10:01:20;;;;;;;0.90;0.40;;;;;;;13.41;83.95;98695.68;1766762;79;20986;-71
2022/10/03 10:04:09;;;;;;;2.12;1.30;;;;;;;13.55;81.26;98688.63;1748120;79;21127;-71
2022/10/03 10:07:06;;;;;;;1.05;0.72;;;;;;;13.63;78.61;98698.89;1765913;79;21029;-72
2022/10/03 10:09:57;;;;;;;4.67;0.20;;;;;;;13.63;76.06;98698.36;1766616;79;21088;-72
2022/10/03 10:13:02;;;;;;;1.45;0.42;;;;;;;13.61;77.70;98706.37;1771491;79;21031;-72
2022/10/03 10:16:14;;;;;;;1.62;0.40;;;;;;;13.62;76.98;98695.41;1787337;79;21028;-70
2022/10/03 10:19:18;;;;;;;0.68;0.20;;;;;;;13.62;76.52;98705.33;1757227;80;21669;-70
2022/10/03 10:22:06;;;;;;;1.70;0.70;;;;;;;13.59;76.43;98691.89;1740035;81;21024;-71
2022/10/03 10:25:09;;;;;;;;;;;;;;;13.60;76.71;98690.84;1733105;80;21020;-73
2022/10/03 10:27:54;;;;;;;2.58;0.28;;;;;;;13.67;76.92;98690.64;1745665;80;20233;-72
2022/10/03 10:30:55;;;;;;;0.62;0.30;;;;;;;13.63;75.11;98682.30;1724510;80;21044;-72
2022/10/03 10:34:07;;;;;;;1.72;0.40;;;;;;;13.61;73.77;98697.80;1744731;80;21541;-71
2022/10/03 10:37:19;;;;;;;5.22;0.45;;;;;;;13.60;73.41;98704.77;1761863;79;21533;-70
2022/10/03 10:40:00;;;;;;;2.67;0.20;;;;;;;13.61;73.61;98709.05;1771222;79;21042;-71
2022/10/03 10:42:40;;;;;;;0.50;0.20;;;;;;;13.66;74.20;98707.78;1766109;78;21088;-73
2022/10/03 10:45:47;;;;;;;5.90;0.57;;;;;;;13.70;74.11;98700.86;1765522;79;21012;-70
2022/10/03 10:48:53;;;;;;;2.67;0.40;;;;;;;13.73;73.37;98701.72;1764533;79;20953;-70
2022/10/03 10:51:59;;;;;;;2.05;0.33;;;;;;;13.71;74.41;98705.17;1760871;80;21030;-74
2022/10/03 10:54:52;;;;;;;2.95;0.68;;;;;;;13.72;73.83;98709.99;1770582;80;21015;-72
2022/10/03 10:57:44;;;;;;;1.77;0.20;;;;;;;13.73;73.98;98712.42;1757935;80;21032;-73
2022/10/03 11:00:25;;;;;;;2.58;0.20;;;;;;;13.77;73.90;98707.39;1754816;80;21083;-71
2022/10/03 11:03:29;;;;;;;1.67;0.23;;;;;;;13.73;73.44;98720.97;1748231;81;21494;-71
2022/10/03 11:06:17;;;;;;;2.50;0.30;;;;;;;13.66;74.03;98717.15;1740212;81;21174;-71
2022/10/03 11:09:18;;;;;;;3.30;0.60;;;;;;;13.60;75.15;98713.59;1748556;79;20979;-70
2022/10/03 11:12:28;;;;;;;1.00;0.35;;;;;;;13.60;75.73;98714.94;1714347;82;21536;-73
2022/10/03 11:15:23;;;;;;;1.77;0.65;;;;;;;13.65;74.68;98712.84;1675273;84;21201;-72
2022/10/03 11:18:05;;;;;;;0.78;0.28;;;;;;;13.69;72.92;98711.28;1665799;84;21616;-74
2022/10/03 11:21:11;;;;;;;0.57;0.23;;;;;;;13.68;73.08;98706.20;1714702;81;21025;-72
2022/10/03 11:24:24;;;;;;;0.55;0.53;;;;;;;13.68;72.42;98710.22;1735990;81;21617;-76
2022/10/03 11:27:27;;;;;;;0.95;0.23;;;;;;;13.73;72.41;98703.56;1745643;80;21088;-74
2022/10/03 11:30:10;;;;;;;1.20;0.20;;;;;;;13.75;72.09;98719.68;1637341;86;21026;-72
2022/10/03 11:32:57;;;;;;;1.50;0.20;;;;;;;13.78;71.83;98708.98;1648497;85;21052;-71
2022/10/03 11:35:51;;;;;;;1.90;0.25;;;;;;;13.81;72.17;98714.66;1753615;80;21103;-72
2022/10/03 11:38:28;;;;;;;1.67;0.53;;;;;;;13.89;70.86;98724.66;1759405;80;21037;-70
2022/10/03 11:41:17;;;;;;;3.05;0.10;;;;;;;13.91;71.00;98713.97;1755029;80;21473;-71
2022/10/03 11:44:15;;;;;;;0.75;0.20;;;;;;;13.91;71.96;98723.34;1752494;80;21078;-72
2022/10/03 11:47:29;;;;;;;1.20;0.10;;;;;;;13.93;72.12;98727.12;1753260;80;21070;-70
2022/10/03 11:50:44;;;;;;;1.02;0.55;;;;;;;13.95;71.36;98727.13;1751281;80;21556;-71
2022/10/03 11:53:53;;;;;;;2.98;0.20;;;;;;;13.87;70.61;98713.39;1760521;79;21508;-71
2022/10/03 11:56:27;;;;;;;1.75;0.88;;;;;;;13.79;71.54;98722.67;1752321;80;21496;-70
2022/10/03 11:59:28;;;;;;;0.90;0.50;;;;;;;13.79;71.74;98725.35;1779912;79;21032;-71
2022/10/03 12:02:27;;;;;;;1.37;0.53;;;;;;;13.83;71.99;98715.22;1740478;80;21044;-73
2022/10/03 12:04:58;;;;;;;1.07;0.20;;;;;;;13.81;71.73;98725.91;1754805;79;21012;-73
2022/10/03 12:10:56;;;;;;;2.83;0.23;;;;;;;13.88;73.18;98729.22;1716675;80;21000;-72
2022/10/03 12:13:46;;;;;;;3.08;0.20;;;;;;;13.88;73.34;98732.41;1789448;79;20988;-72
2022/10/03 12:16:27;;;;;;;0.85;0.20;;;;;;;13.91;73.38;98735.94;1776436;78;21051;-71
2022/10/03 12:19:09;;;;;;;0.80;0.20;;;;;;;13.95;73.28;98723.66;1753818;80;21016;-70
2022/10/03 12:22:06;;;;;;;1.10;0.30;;;;;;;13.98;72.92;98737.90;1761454;79;21004;-70
2022/10/03 12:24:41;;;;;;;4.62;1.20;;;;;;;13.97;73.33;98736.27;1794159;79;21027;-72
2022/10/03 12:27:35;;;;;;;2.70;0.55;;;;;;;13.99;72.47;98720.75;1777036;79;21015;-72
2022/10/03 12:30:07;;;;;;;2.02;1.67;;;;;;;14.00;72.79;98725.06;1774133;79;20965;-71
2022/10/03 12:32:48;;;;;;;1.77;0.20;;;;;;;13.98;73.11;98727.98;1769926;79;21049;-75
2022/10/03 12:35:49;;;;;;;3.22;0.40;;;;;;;13.97;72.81;98729.03;1769798;80;20980;-71
2022/10/03 12:38:45;;;;;;;5.85;0.78;;;;;;;13.97;73.81;98729.03;1730434;81;21004;-73
2022/10/03 12:41:35;;;;;;;0.95;0.50;;;;;;;13.97;72.71;98729.03;1750209;80;20966;-71
2022/10/03 12:44:36;;;;;;;3.30;0.78;;;;;;;13.90;72.37;98726.27;1739985;81;21052;-72
2022/10/03 12:47:29;;;;;;;1.77;0.60;;;;;;;13.87;72.73;98729.46;1727619;81;20993;-73
2022/10/03 12:50:36;;;;;;;3.98;0.60;;;;;;;13.81;72.77;98736.09;1747164;80;21555;-73
2022/10/03 12:53:27;;;;;;;0.78;0.60;;;;;;;13.79;73.43;98741.42;1749603;80;21023;-74
2022/10/03 12:56:06;;;;;;;3.62;0.42;;;;;;;13.68;75.14;98746.36;1746624;80;21000;-73
2022/10/03 12:58:59;;;;;;;2.33;0.70;;;;;;;13.57;78.22;98760.13;1758679;80;21024;-72
2022/10/03 13:01:46;;;;;;;4.83;0.60;;;;;;;13.41;79.94;98745.70;1738370;80;21067;-71
2022/10/03 13:04:40;;;;;;;5.13;0.60;;;;;;;13.25;81.91;98745.45;1748971;81;21521;-70
2022/10/03 13:07:31;;;;;;;1.60;0.47;;;;;;;13.13;83.39;98743.41;1791877;78;21009;-71
2022/10/03 13:10:30;;;;;;;1.37;0.70;;;;;;;12.99;83.42;98732.73;1790472;78;20997;-72
2022/10/03 13:13:33;;;;;;;1.97;0.40;;;;;;;12.95;83.40;98732.41;1782972;78;20965;-71
2022/10/03 13:16:23;;;;;;;0.60;0.40;;;;;;;12.96;83.18;98735.88;1772735;79;21211;-70
2022/10/03 13:18:58;;;;;;;1.22;0.30;;;;;;;12.93;82.79;98730.50;1775086;79;21044;-72
2022/10/03 13:21:44;;;;;;;8.95;0.90;;;;;;;12.88;81.55;98731.75;1760317;79;21107;-73
2022/10/03 13:24:38;;;;;;;2.00;0.55;;;;;;;12.85;81.68;98735.73;1741442;81;21053;-70
2022/10/03 13:27:34;;;;;;;0.80;0.70;;;;;;;12.83;81.71;98738.38;1732294;81;21064;-72
2022/10/03 13:30:16;;;;;;;2.22;0.40;;;;;;;12.82;81.50;98734.06;1744382;81;21046;-70
2022/10/03 13:32:56;;;;;;;1.07;0.33;;;;;;;12.81;80.36;98726.58;1747191;80;21004;-73
2022/10/03 13:36:01;;;;;;;0.40;0.20;;;;;;;12.81;80.56;98747.17;1749798;80;21098;-72
2022/10/03 13:38:57;;;;;;;1.15;0.40;;;;;;;12.80;79.78;98748.20;1727660;80;21524;-73
2022/10/03 13:41:50;;;;;;;1.12;0.15;;;;;;;12.71;83.44;98759.81;1749076;80;21127;-72
2022/10/03 13:44:41;;;;;;;1.98;0.42;;;;;;;12.44;84.13;98747.58;1770493;79;21288;-73
2022/10/03 13:47:30;;;;;;;0.90;0.20;;;;;;;12.08;83.19;98750.91;1761295;79;21503;-71
2022/10/03 13:50:01;;;;;;;5.05;1.07;;;;;;;11.87;85.54;98748.32;1747357;80;21538;-74